Serian, Malaysia
Current Conditions -  °F | °C
As of 1:00 PM on Saturday 29 Nov 2014 (Local Time) from WBGG Reporting Station
Broken Clouds Broken Clouds  
Wind Chill: 90°   Ceiling: 15000
Heat Index: 105°   Visibility: 6mi
Dew Point: 79°   Wind: 6mph
Humidity: 70%   Direction: 290°WNW
Pressure: 29.77"   Gusts: NA
Location:  1.17°N, 110.56°E
Report Text: WBGG 290500Z 29005KT 9999 FEW015CB SCT020 BKN150 32/26 Q1008 NOSIG
Loading
Personal Weather Stations






























Interactive Weather Map New forecast layout! Learn more

10-Day Weather Forecast

Advertisements
Track Severe Weather on mobile